createdAt,value
2019-04-22T00:00:21.728Z,7.26
2019-04-22T00:01:23.077Z,7.22
2019-04-22T00:02:17.418Z,7.20
2019-04-22T00:03:18.815Z,7.16
2019-04-22T00:04:29.463Z,7.12
2019-04-22T00:05:37.480Z,7.13
2019-04-22T00:06:38.912Z,7.15
2019-04-22T00:07:41.714Z,7.16
2019-04-22T00:08:42.701Z,7.13
2019-04-22T00:09:45.420Z,7.13
2019-04-22T00:10:46.526Z,7.12
2019-04-22T00:11:45.124Z,7.12
2019-04-22T00:12:33.945Z,7.02
2019-04-22T00:13:45.650Z,7.05
2019-04-22T00:14:33.617Z,7.09
2019-04-22T00:15:36.606Z,7.09
2019-04-22T00:16:46.752Z,7.03
2019-04-22T00:17:44.595Z,7.06
2019-04-22T00:18:42.511Z,7.12
2019-04-22T00:22:37.895Z,7.17
2019-04-22T00:23:30.510Z,7.41
2019-04-22T00:24:36.490Z,7.61
2019-04-22T00:25:34.255Z,7.45
2019-04-22T00:26:43.812Z,7.37
2019-04-22T00:28:43.405Z,7.27
2019-04-22T00:29:49.109Z,7.26
2019-04-22T00:30:40.287Z,7.23
2019-04-22T00:31:32.583Z,7.27
2019-04-22T00:32:36.140Z,7.22
2019-04-22T00:33:38.490Z,7.22
2019-04-22T00:34:42.165Z,7.24
2019-04-22T00:35:29.096Z,7.22
2019-04-22T00:36:41.462Z,7.19
2019-04-22T00:37:42.970Z,7.16
2019-04-22T00:39:40.789Z,7.24
2019-04-22T00:40:39.173Z,7.12
2019-04-22T00:41:42.336Z,7.07
2019-04-22T00:42:40.785Z,7.07
2019-04-22T00:43:39.033Z,7.03
2019-04-22T00:45:42.755Z,6.91
2019-04-22T00:47:37.555Z,6.95
2019-04-22T00:48:32.045Z,6.95
2019-04-22T00:50:45.844Z,6.85
2019-04-22T00:51:33.395Z,6.86
2019-04-22T00:53:39.000Z,6.99
2019-04-22T00:54:45.418Z,6.99
2019-04-22T00:55:37.419Z,6.96
2019-04-22T00:56:40.461Z,7.00
2019-04-22T00:57:38.617Z,7.03
2019-04-22T00:58:40.486Z,7.06
2019-04-22T00:59:44.959Z,7.12
2019-04-22T01:00:44.105Z,7.07
2019-04-22T01:01:36.596Z,6.99
2019-04-22T01:02:32.393Z,7.02
2019-04-22T01:03:49.081Z,6.98
2019-04-22T01:05:33.988Z,6.95
2019-04-22T01:06:38.277Z,6.91
2019-04-22T01:08:46.354Z,6.85
2019-04-22T01:10:45.036Z,6.82
2019-04-22T01:11:36.893Z,6.79
2019-04-22T01:12:39.009Z,6.72
2019-04-22T01:13:38.166Z,6.78
2019-04-22T01:14:41.166Z,6.63
2019-04-22T01:15:40.032Z,6.61
2019-04-22T01:16:42.556Z,6.57
2019-04-22T01:18:41.076Z,6.52
2019-04-22T01:19:44.878Z,6.52
2019-04-22T01:21:00.377Z,6.40
2019-04-22T01:21:39.062Z,6.37
2019-04-22T01:22:31.639Z,6.33
2019-04-22T01:23:34.221Z,6.29
2019-04-22T01:24:32.184Z,6.21
2019-04-22T01:25:29.281Z,6.24
2019-04-22T01:26:33.924Z,6.10
2019-04-22T01:27:34.316Z,6.12
2019-04-22T01:28:30.023Z,6.08
2019-04-22T01:29:30.239Z,6.05
2019-04-22T01:30:26.373Z,6.06
2019-04-22T01:31:21.735Z,5.98
2019-04-22T01:32:22.851Z,6.00
2019-04-22T01:33:25.849Z,6.00
2019-04-22T01:34:27.739Z,6.00
2019-04-22T01:35:28.520Z,5.99
2019-04-22T01:36:35.059Z,6.03
2019-04-22T01:37:34.192Z,6.02
2019-04-22T01:38:36.113Z,5.96
2019-04-22T01:39:43.350Z,5.98
2019-04-22T01:40:44.751Z,5.99
2019-04-22T01:41:48.225Z,6.06
2019-04-22T01:43:51.653Z,6.02
2019-04-22T01:44:32.621Z,6.00
2019-04-22T01:45:31.089Z,6.08
2019-04-22T01:46:43.461Z,6.06
2019-04-22T01:47:43.028Z,6.05
2019-04-22T01:49:39.688Z,6.05
2019-04-22T01:50:36.652Z,6.00
2019-04-22T01:51:51.611Z,5.99
2019-04-22T01:52:36.512Z,5.96
2019-04-22T01:53:40.980Z,5.92
2019-04-22T01:55:43.743Z,5.92
2019-04-22T01:56:32.860Z,5.86
2019-04-22T01:58:33.093Z,5.78
2019-04-22T01:59:35.365Z,5.71
2019-04-22T02:00:44.121Z,5.68
2019-04-22T02:01:43.452Z,5.64
2019-04-22T02:02:41.463Z,5.62
2019-04-22T02:03:46.317Z,5.58
2019-04-22T02:04:42.860Z,5.55
2019-04-22T02:06:41.943Z,5.47
2019-04-22T02:07:41.202Z,5.44
2019-04-22T02:08:37.717Z,5.44
2019-04-22T02:09:42.511Z,5.44
2019-04-22T02:10:45.962Z,5.43
2019-04-22T02:11:45.309Z,5.43
2019-04-22T02:12:31.869Z,5.41
2019-04-22T02:13:35.106Z,5.41
2019-04-22T02:16:41.091Z,5.47
2019-04-22T02:19:45.381Z,5.34
2019-04-22T02:20:42.597Z,5.30
2019-04-22T02:21:35.271Z,5.34
2019-04-22T02:22:59.686Z,5.30
2019-04-22T02:23:46.734Z,5.34
2019-04-22T02:24:43.671Z,5.37
2019-04-22T02:25:49.275Z,5.40
2019-04-22T02:26:39.797Z,5.35
2019-04-22T02:27:45.397Z,5.34
2019-04-22T02:28:39.751Z,5.38
2019-04-22T02:31:01.552Z,5.35
2019-04-22T02:31:48.629Z,5.38
2019-04-22T02:34:39.434Z,5.43
2019-04-22T02:36:40.795Z,5.38
2019-04-22T02:37:35.025Z,5.43
2019-04-22T02:38:58.261Z,5.41
2019-04-22T02:41:40.668Z,5.43
2019-04-22T02:42:51.408Z,5.37
2019-04-22T02:43:58.581Z,5.34
2019-04-22T02:47:33.305Z,5.47
2019-04-22T02:50:53.896Z,5.41
2019-04-22T02:51:36.394Z,5.35
2019-04-22T02:52:42.572Z,5.31
2019-04-22T02:54:47.008Z,5.26
2019-04-22T02:55:48.652Z,5.27
2019-04-22T02:56:35.738Z,5.30
2019-04-22T02:59:46.381Z,5.27
2019-04-22T03:00:37.041Z,5.28
2019-04-22T03:02:58.713Z,5.24
2019-04-22T03:03:40.339Z,5.20
2019-04-22T03:04:36.933Z,5.19
2019-04-22T03:07:50.325Z,5.14
2019-04-22T03:09:47.275Z,5.22
2019-04-22T03:10:54.504Z,5.20
2019-04-22T03:12:40.674Z,5.22
2019-04-22T03:14:47.685Z,5.26
2019-04-22T03:15:40.484Z,5.28
2019-04-22T03:16:42.679Z,5.26
2019-04-22T03:17:43.132Z,5.34
2019-04-22T03:18:54.823Z,5.28
2019-04-22T03:20:49.862Z,5.19
2019-04-22T03:21:46.329Z,5.16
2019-04-22T03:22:45.505Z,5.14
2019-04-22T03:23:54.080Z,5.13
2019-04-22T03:24:33.032Z,5.14
2019-04-22T03:26:11.169Z,5.10
2019-04-22T03:26:48.178Z,5.07
2019-04-22T03:27:38.551Z,5.02
2019-04-22T03:28:50.680Z,4.98
2019-04-22T03:29:56.028Z,4.99
2019-04-22T03:30:53.239Z,4.91
2019-04-22T03:32:12.383Z,4.91
2019-04-22T03:33:10.514Z,4.93
2019-04-22T03:34:14.130Z,4.92
2019-04-22T03:35:48.737Z,4.82
2019-04-22T03:37:50.208Z,4.69
2019-04-22T03:39:50.277Z,4.68
2019-04-22T03:40:36.212Z,4.64
2019-04-22T03:41:47.364Z,4.63
2019-04-22T03:43:41.938Z,4.58
2019-04-22T03:44:38.173Z,4.54
2019-04-22T03:45:37.594Z,4.55
2019-04-22T03:47:50.709Z,4.50
2019-04-22T03:48:58.223Z,4.44
2019-04-22T03:49:54.091Z,4.44
2019-04-22T03:50:35.925Z,4.46
2019-04-22T03:51:56.438Z,4.40
2019-04-22T03:52:34.456Z,4.40
2019-04-22T03:53:47.886Z,4.40
2019-04-22T03:54:51.484Z,4.36
2019-04-22T03:55:42.939Z,4.44
2019-04-22T03:57:17.536Z,4.47
2019-04-22T03:57:49.562Z,4.47
2019-04-22T03:59:47.467Z,4.46
2019-04-22T04:00:47.293Z,4.41
2019-04-22T04:01:52.670Z,4.36
2019-04-22T04:03:50.473Z,4.37
2019-04-22T04:04:40.827Z,4.36
2019-04-22T04:06:58.969Z,4.31
2019-04-22T04:07:51.634Z,4.24
2019-04-22T04:08:38.491Z,4.23
2019-04-22T04:09:48.652Z,4.21
2019-04-22T04:10:47.472Z,4.21
2019-04-22T04:12:46.857Z,4.14
2019-04-22T04:13:51.803Z,4.10
2019-04-22T04:14:53.349Z,4.12
2019-04-22T04:15:33.840Z,4.09
2019-04-22T04:18:55.880Z,4.06
2019-04-22T04:19:43.022Z,4.03
2019-04-22T04:24:00.487Z,4.30
2019-04-22T04:25:46.390Z,4.23
2019-04-22T04:26:54.626Z,4.21
2019-04-22T04:28:49.983Z,4.20
2019-04-22T04:30:04.944Z,4.31
2019-04-22T04:31:40.465Z,4.27
2019-04-22T04:32:52.240Z,4.28
2019-04-22T04:33:46.319Z,4.31
2019-04-22T04:35:02.927Z,4.30
2019-04-22T04:36:54.333Z,4.27
2019-04-22T04:37:51.151Z,4.33
2019-04-22T04:38:51.544Z,4.33
2019-04-22T04:39:52.876Z,4.31
2019-04-22T04:40:30.970Z,4.34
2019-04-22T04:41:51.551Z,4.37
2019-04-22T04:42:53.125Z,4.38
2019-04-22T04:43:52.117Z,4.38
2019-04-22T04:45:53.935Z,4.34
2019-04-22T04:46:44.252Z,4.40
2019-04-22T04:49:51.487Z,4.36
2019-04-22T04:51:46.086Z,4.34
2019-04-22T04:53:00.967Z,4.37
2019-04-22T04:53:31.455Z,4.38
2019-04-22T04:54:35.320Z,4.34
2019-04-22T04:55:45.407Z,4.37
2019-04-22T04:56:46.379Z,4.41
2019-04-22T04:58:03.088Z,4.48
2019-04-22T04:58:46.031Z,4.48
2019-04-22T05:00:21.419Z,4.48
2019-04-22T05:01:01.858Z,4.51
2019-04-22T05:01:35.009Z,4.50
2019-04-22T05:02:52.037Z,4.51
2019-04-22T05:03:56.545Z,4.60
2019-04-22T05:05:47.344Z,4.60
2019-04-22T05:07:47.116Z,4.63
2019-04-22T05:09:32.130Z,4.74
2019-04-22T05:12:00.767Z,5.12
2019-04-22T05:12:44.821Z,5.33
2019-04-22T05:14:45.957Z,5.38
2019-04-22T05:15:42.638Z,5.51
2019-04-22T05:16:46.168Z,5.55
2019-04-22T05:18:37.067Z,5.54
2019-04-22T05:19:30.536Z,5.58
2019-04-22T05:20:59.357Z,5.67
2019-04-22T05:21:46.699Z,5.75
2019-04-22T05:22:33.442Z,5.75
2019-04-22T05:23:43.668Z,5.79
2019-04-22T05:24:42.043Z,5.78
2019-04-22T05:25:31.458Z,5.79
2019-04-22T05:26:32.363Z,5.85
2019-04-22T05:27:33.928Z,5.91
2019-04-22T05:28:41.888Z,6.08
2019-04-22T05:29:59.979Z,6.06
2019-04-22T05:30:38.989Z,6.40
2019-04-22T05:31:43.366Z,6.43
2019-04-22T05:33:40.508Z,6.45
2019-04-22T05:34:33.267Z,6.65
2019-04-22T05:35:37.356Z,6.64
2019-04-22T05:36:32.591Z,6.82
2019-04-22T05:37:39.849Z,7.26
2019-04-22T05:39:42.256Z,7.22
2019-04-22T05:40:34.006Z,7.22
2019-04-22T05:41:41.234Z,7.35
2019-04-22T05:43:33.905Z,7.65
2019-04-22T05:44:40.714Z,7.64
2019-04-22T05:45:36.710Z,7.75
2019-04-22T05:46:39.056Z,7.74
2019-04-22T05:47:31.809Z,7.66
2019-04-22T05:48:43.730Z,7.64
2019-04-22T05:49:28.548Z,7.71
2019-04-22T05:50:26.513Z,7.82
2019-04-22T05:51:41.557Z,8.06
2019-04-22T05:52:40.240Z,7.93
2019-04-22T05:53:39.872Z,8.05
2019-04-22T05:54:38.349Z,9.00
2019-04-22T05:57:36.899Z,8.65
2019-04-22T05:58:44.710Z,9.31
2019-04-22T05:59:45.569Z,9.68
2019-04-22T06:00:40.232Z,9.74
2019-04-22T06:01:50.131Z,9.71
2019-04-22T06:03:45.911Z,9.41
2019-04-22T06:04:44.757Z,9.24
2019-04-22T06:05:41.502Z,9.24
2019-04-22T06:06:35.190Z,9.20
2019-04-22T06:07:38.323Z,9.19
2019-04-22T06:08:45.273Z,9.27
2019-04-22T06:09:38.613Z,9.17
2019-04-22T06:10:32.524Z,9.13
2019-04-22T06:11:31.769Z,9.15
2019-04-22T06:12:31.283Z,9.19
2019-04-22T06:13:31.784Z,9.19
2019-04-22T06:14:36.573Z,9.17
2019-04-22T06:15:37.113Z,9.20
2019-04-22T06:16:43.887Z,9.22
2019-04-22T06:18:37.998Z,9.34
2019-04-22T06:19:31.136Z,9.92
2019-04-22T06:20:45.262Z,9.81
2019-04-22T06:21:41.627Z,9.75
2019-04-22T06:23:45.925Z,9.91
2019-04-22T06:24:41.788Z,9.89
2019-04-22T06:25:56.942Z,10.01
2019-04-22T06:27:40.260Z,10.37
2019-04-22T06:28:34.649Z,10.50
2019-04-22T06:29:29.680Z,10.40
2019-04-22T06:30:41.238Z,10.57
2019-04-22T06:31:55.800Z,10.57
2019-04-22T06:32:39.350Z,10.71
2019-04-22T06:33:40.345Z,10.67
2019-04-22T06:34:41.630Z,10.60
2019-04-22T06:35:43.399Z,10.57
2019-04-22T06:37:43.113Z,10.68
2019-04-22T06:38:39.012Z,10.72
2019-04-22T06:39:36.774Z,10.79
2019-04-22T06:40:31.355Z,10.88
2019-04-22T06:41:32.867Z,12.01
2019-04-22T06:42:42.184Z,12.15
2019-04-22T06:43:40.460Z,12.02
2019-04-22T06:45:28.453Z,11.98
2019-04-22T06:46:39.495Z,12.20
2019-04-22T06:48:34.105Z,11.95
2019-04-22T06:50:41.492Z,12.32
2019-04-22T06:51:32.077Z,12.28
2019-04-22T06:52:37.901Z,12.41
2019-04-22T06:53:40.328Z,12.64
2019-04-22T06:54:38.903Z,12.75
2019-04-22T06:55:35.292Z,12.57
2019-04-22T06:56:42.453Z,12.70
2019-04-22T06:57:30.100Z,13.21
2019-04-22T06:58:39.342Z,13.47
2019-04-22T06:59:42.410Z,13.97
2019-04-22T07:00:41.434Z,14.37
2019-04-22T07:01:41.887Z,14.40
2019-04-22T07:02:55.707Z,14.36
2019-04-22T07:03:47.463Z,14.53
2019-04-22T07:04:41.418Z,14.70
2019-04-22T07:05:32.413Z,15.05
2019-04-22T07:06:34.660Z,15.22
2019-04-22T07:09:12.130Z,15.28
2019-04-22T07:10:34.752Z,15.64
2019-04-22T07:11:29.435Z,15.71
2019-04-22T07:12:41.285Z,15.87
2019-04-22T07:13:42.601Z,15.77
2019-04-22T07:14:41.619Z,15.88
2019-04-22T07:17:42.019Z,16.05
2019-04-22T07:19:33.141Z,16.17
2019-04-22T07:22:39.641Z,16.21
2019-04-22T07:23:32.907Z,16.24
2019-04-22T07:24:45.385Z,16.24
2019-04-22T07:25:40.457Z,16.27
2019-04-22T07:26:28.879Z,16.38
2019-04-22T07:27:34.051Z,16.49
2019-04-22T07:28:36.899Z,16.47
2019-04-22T07:29:32.124Z,16.64
2019-04-22T07:31:42.349Z,16.60
2019-04-22T07:32:53.006Z,16.53
2019-04-22T07:34:38.769Z,16.64
2019-04-22T07:35:35.710Z,16.74
2019-04-22T07:36:45.378Z,16.88
2019-04-22T07:37:41.426Z,16.86
2019-04-22T07:38:35.476Z,16.84
2019-04-22T07:39:39.063Z,16.91
2019-04-22T07:40:43.143Z,17.07
2019-04-22T07:41:31.574Z,17.14
2019-04-22T07:42:30.892Z,17.31
2019-04-22T07:46:41.286Z,17.14
2019-04-22T07:48:44.598Z,17.38
2019-04-22T07:50:42.599Z,17.36
2019-04-22T07:52:38.171Z,17.50
2019-04-22T07:53:39.044Z,17.56
2019-04-22T07:54:41.241Z,17.48
2019-04-22T07:55:37.914Z,17.70
2019-04-22T07:56:29.062Z,17.79
2019-04-22T07:57:36.320Z,17.80
2019-04-22T07:59:40.175Z,17.72
2019-04-22T08:00:38.408Z,17.66
2019-04-22T08:01:35.174Z,17.53
2019-04-22T08:02:43.464Z,17.49
2019-04-22T08:03:51.109Z,17.45
2019-04-22T08:04:53.600Z,17.45
2019-04-22T08:05:51.301Z,17.80
2019-04-22T08:06:45.842Z,17.94
2019-04-22T08:07:41.956Z,17.86
2019-04-22T08:08:28.600Z,17.70
2019-04-22T08:09:35.439Z,17.69
2019-04-22T08:12:45.470Z,17.96
2019-04-22T08:13:40.424Z,18.08
2019-04-22T08:14:40.151Z,17.81
2019-04-22T08:16:42.981Z,17.97
2019-04-22T08:17:54.583Z,17.63
2019-04-22T08:18:33.901Z,17.76
2019-04-22T08:19:41.532Z,17.98
2019-04-22T08:20:40.218Z,18.08
2019-04-22T08:22:42.513Z,18.12
2019-04-22T08:23:41.499Z,18.12
2019-04-22T08:24:35.414Z,18.08
2019-04-22T08:25:42.324Z,18.51
2019-04-22T08:26:31.617Z,18.60
2019-04-22T08:27:42.616Z,18.44
2019-04-22T08:29:36.630Z,18.67
2019-04-22T08:30:33.412Z,19.05
2019-04-22T08:31:35.094Z,18.66
2019-04-22T08:34:29.036Z,18.75
2019-04-22T08:35:59.525Z,19.01
2019-04-22T08:36:53.120Z,18.90
2019-04-22T08:37:50.609Z,19.00
2019-04-22T08:38:46.808Z,18.91
2019-04-22T08:39:30.802Z,18.94
2019-04-22T08:40:35.971Z,19.17
2019-04-22T08:41:37.033Z,19.14
2019-04-22T08:43:36.117Z,19.21
2019-04-22T08:44:56.578Z,19.48
2019-04-22T08:46:39.820Z,19.42
2019-04-22T08:47:41.161Z,19.59
2019-04-22T08:48:43.753Z,19.51
2019-04-22T08:49:50.038Z,19.53
2019-04-22T08:50:33.182Z,19.22
2019-04-22T08:51:29.143Z,19.35
2019-04-22T08:52:40.430Z,19.32
2019-04-22T08:53:47.902Z,19.62
2019-04-22T08:55:46.178Z,19.38
2019-04-22T08:56:31.976Z,19.56
2019-04-22T08:58:03.059Z,19.27
2019-04-22T08:58:39.454Z,19.37
2019-04-22T08:59:43.041Z,19.72
2019-04-22T09:00:36.757Z,19.90
2019-04-22T09:01:37.560Z,19.86
2019-04-22T09:02:32.347Z,19.76
2019-04-22T09:03:45.397Z,19.83
2019-04-22T09:04:41.907Z,19.96
2019-04-22T09:07:31.182Z,19.74
2019-04-22T09:08:40.309Z,19.81
2019-04-22T09:10:43.129Z,20.18
2019-04-22T09:11:34.809Z,20.13
2019-04-22T09:12:46.580Z,20.28
2019-04-22T09:13:42.909Z,20.24
2019-04-22T09:14:41.503Z,20.07
2019-04-22T09:15:41.563Z,20.24
2019-04-22T09:16:42.484Z,20.23
2019-04-22T09:17:39.400Z,20.42
2019-04-22T09:19:40.209Z,20.65
2019-04-22T09:20:32.314Z,20.54
2019-04-22T09:22:40.652Z,20.41
2019-04-22T09:23:43.942Z,20.52
2019-04-22T09:24:40.394Z,20.42
2019-04-22T09:25:39.021Z,20.44
2019-04-22T09:26:41.567Z,20.45
2019-04-22T09:27:42.518Z,20.34
2019-04-22T09:28:43.905Z,20.46
2019-04-22T09:29:33.645Z,20.44
2019-04-22T09:30:33.947Z,20.46
2019-04-22T09:31:35.181Z,20.60
2019-04-22T09:32:44.539Z,20.54
2019-04-22T09:33:36.667Z,20.55
2019-04-22T09:34:39.587Z,20.60
2019-04-22T09:36:40.516Z,20.54
2019-04-22T09:38:40.884Z,20.63
2019-04-22T09:39:40.579Z,20.86
2019-04-22T09:40:38.873Z,20.73
2019-04-22T09:42:43.556Z,20.65
2019-04-22T09:43:46.627Z,20.44
2019-04-22T09:45:42.598Z,20.76
2019-04-22T09:46:40.839Z,20.90
2019-04-22T09:48:42.988Z,20.80
2019-04-22T09:50:41.893Z,20.46
2019-04-22T09:52:40.491Z,20.21
2019-04-22T09:53:45.131Z,20.44
2019-04-22T09:54:36.580Z,20.38
2019-04-22T09:55:33.984Z,20.60
2019-04-22T09:56:43.259Z,20.63
2019-04-22T09:57:37.350Z,20.65
2019-04-22T09:58:43.924Z,20.76
2019-04-22T09:59:34.519Z,20.49
2019-04-22T10:00:42.436Z,20.29
2019-04-22T10:01:40.759Z,20.76
2019-04-22T10:02:46.925Z,20.79
2019-04-22T10:03:44.157Z,20.83
2019-04-22T10:04:32.811Z,21.02
2019-04-22T10:05:32.100Z,20.69
2019-04-22T10:06:36.521Z,20.72
2019-04-22T10:07:38.793Z,20.68
2019-04-22T10:08:52.490Z,20.83
2019-04-22T10:10:41.304Z,21.03
2019-04-22T10:11:43.460Z,21.04
2019-04-22T10:13:34.218Z,20.68
2019-04-22T10:14:30.601Z,20.82
2019-04-22T10:15:38.898Z,21.23
2019-04-22T10:16:43.423Z,20.92
2019-04-22T10:18:45.483Z,21.27
2019-04-22T10:19:40.756Z,21.38
2019-04-22T10:20:45.382Z,21.58
2019-04-22T10:22:45.630Z,21.62
2019-04-22T10:23:31.157Z,21.61
2019-04-22T10:24:38.609Z,21.51
2019-04-22T10:25:44.797Z,21.57
2019-04-22T10:26:33.235Z,21.55
2019-04-22T10:27:32.231Z,21.37
2019-04-22T10:28:44.202Z,21.23
2019-04-22T10:29:46.883Z,21.18
2019-04-22T10:30:46.705Z,21.18
2019-04-22T10:31:36.735Z,21.14
2019-04-22T10:32:41.725Z,21.14
2019-04-22T10:33:35.161Z,21.33
2019-04-22T10:34:24.358Z,21.37
2019-04-22T10:35:19.722Z,21.29
2019-04-22T10:36:17.264Z,21.38
2019-04-22T10:37:18.775Z,21.31
2019-04-22T10:38:16.912Z,21.33
2019-04-22T10:39:18.280Z,21.40
2019-04-22T10:40:17.732Z,21.15
2019-04-22T10:41:16.769Z,21.45
2019-04-22T10:42:17.460Z,21.45
2019-04-22T10:43:17.065Z,21.23
2019-04-22T10:44:17.123Z,20.73
2019-04-22T10:45:16.604Z,21.47
2019-04-22T10:46:18.036Z,21.62
2019-04-22T10:47:16.369Z,21.37
2019-04-22T10:48:16.628Z,21.40
2019-04-22T10:49:18.194Z,21.42
2019-04-22T10:50:16.628Z,21.61
2019-04-22T10:51:16.943Z,21.69
2019-04-22T10:52:16.561Z,21.80
2019-04-22T10:53:17.572Z,21.83
2019-04-22T10:54:17.716Z,21.68
2019-04-22T10:55:17.300Z,21.70
2019-04-22T10:56:16.978Z,21.54
2019-04-22T10:57:16.300Z,21.55
2019-04-22T10:58:16.931Z,21.73
2019-04-22T10:59:16.458Z,21.96
2019-04-22T11:00:17.641Z,21.75
2019-04-22T11:01:17.849Z,21.59
2019-04-22T11:02:17.405Z,21.72
2019-04-22T11:03:18.050Z,21.75
2019-04-22T11:04:17.429Z,21.75
2019-04-22T11:05:16.871Z,21.80
2019-04-22T11:06:17.218Z,21.70
2019-04-22T11:07:17.289Z,21.75
2019-04-22T11:08:24.164Z,21.91
2019-04-22T11:09:16.502Z,21.93
2019-04-22T11:10:32.920Z,21.85
2019-04-22T11:11:29.980Z,21.80
2019-04-22T11:12:20.539Z,22.07
2019-04-22T11:13:17.832Z,21.92
2019-04-22T11:14:16.807Z,21.92
2019-04-22T11:15:18.067Z,21.89
2019-04-22T11:16:17.393Z,22.05
2019-04-22T11:17:17.675Z,21.89
2019-04-22T11:18:17.781Z,22.06
2019-04-22T11:19:17.365Z,21.79
2019-04-22T11:20:17.634Z,21.88
2019-04-22T11:21:17.899Z,21.66
2019-04-22T11:22:20.428Z,21.80
2019-04-22T11:23:16.899Z,21.89
2019-04-22T11:24:16.905Z,21.95
2019-04-22T11:25:18.029Z,21.82
2019-04-22T11:26:17.591Z,21.79
2019-04-22T11:27:17.168Z,21.80
2019-04-22T11:28:17.604Z,21.76
2019-04-22T11:29:17.381Z,21.91
2019-04-22T11:30:18.850Z,22.13
2019-04-22T11:31:16.805Z,21.83
2019-04-22T11:32:18.174Z,21.78
2019-04-22T11:33:16.589Z,21.88
2019-04-22T11:34:17.160Z,22.07
2019-04-22T11:35:16.517Z,21.97
2019-04-22T11:36:17.695Z,21.76
2019-04-22T11:37:18.479Z,21.80
2019-04-22T11:38:17.162Z,21.88
2019-04-22T11:39:16.995Z,22.15
2019-04-22T11:40:23.948Z,22.16
2019-04-22T11:41:17.079Z,22.30
2019-04-22T11:42:16.426Z,22.38
2019-04-22T11:43:16.708Z,22.53
2019-04-22T11:44:17.199Z,22.27
2019-04-22T11:45:17.369Z,22.12
2019-04-22T11:46:17.577Z,22.30
2019-04-22T11:47:17.226Z,22.41
2019-04-22T11:48:17.586Z,22.41
2019-04-22T11:49:18.135Z,22.67
2019-04-22T11:50:17.682Z,22.60
2019-04-22T11:51:18.000Z,22.57
2019-04-22T11:52:17.192Z,22.48
2019-04-22T11:53:16.756Z,22.53
2019-04-22T11:54:17.133Z,22.45
2019-04-22T11:55:17.000Z,22.51
2019-04-22T11:56:16.793Z,22.57
2019-04-22T11:57:17.180Z,22.62
2019-04-22T11:58:17.024Z,22.53
2019-04-22T11:59:16.456Z,22.41
2019-04-22T12:00:16.907Z,22.53
2019-04-22T12:01:16.965Z,22.23
2019-04-22T12:02:17.658Z,22.51
2019-04-22T12:03:16.885Z,22.51
2019-04-22T12:04:17.964Z,22.44
2019-04-22T12:05:17.472Z,22.51
2019-04-22T12:06:17.995Z,22.45
2019-04-22T12:07:17.153Z,22.45
2019-04-22T12:08:17.311Z,22.07
2019-04-22T12:09:17.569Z,22.02
2019-04-22T12:10:27.128Z,22.10
2019-04-22T12:11:16.740Z,22.19
2019-04-22T12:12:18.064Z,22.17
2019-04-22T12:13:17.743Z,22.09
2019-04-22T12:14:18.058Z,22.10
2019-04-22T12:15:16.904Z,22.17
2019-04-22T12:16:17.092Z,22.31
2019-04-22T12:17:17.763Z,22.30
2019-04-22T12:18:17.277Z,22.27
2019-04-22T12:19:16.618Z,22.26
2019-04-22T12:20:18.052Z,22.28
2019-04-22T12:21:17.129Z,22.23
2019-04-22T12:22:17.292Z,22.19
2019-04-22T12:23:16.996Z,22.19
2019-04-22T12:24:17.193Z,22.26
2019-04-22T12:25:29.920Z,22.16
2019-04-22T12:26:18.913Z,22.16
2019-04-22T12:27:18.364Z,22.15
2019-04-22T12:28:17.172Z,22.19
2019-04-22T12:29:17.145Z,22.15
2019-04-22T12:30:16.758Z,22.30
2019-04-22T12:31:17.640Z,22.13
2019-04-22T12:32:17.750Z,22.05
2019-04-22T12:33:17.105Z,22.13
2019-04-22T12:34:17.287Z,22.28
2019-04-22T12:35:17.677Z,22.16
2019-04-22T12:36:18.203Z,22.17
2019-04-22T12:37:24.690Z,22.23
2019-04-22T12:38:18.090Z,22.26
2019-04-22T12:39:17.701Z,22.17
2019-04-22T12:40:26.777Z,22.35
2019-04-22T12:41:17.882Z,22.28
2019-04-22T12:42:17.423Z,22.38
2019-04-22T12:43:18.930Z,22.45
2019-04-22T12:44:18.031Z,22.26
2019-04-22T12:45:16.407Z,22.16
2019-04-22T12:46:16.672Z,22.23
2019-04-22T12:47:17.803Z,22.35
2019-04-22T12:48:17.216Z,21.88
2019-04-22T12:49:16.498Z,22.00
2019-04-22T12:50:24.012Z,22.34
2019-04-22T12:51:17.037Z,22.48
2019-04-22T12:52:23.883Z,22.48
2019-04-22T12:53:18.610Z,22.52
2019-04-22T12:54:17.087Z,22.33
2019-04-22T12:55:17.502Z,22.35
2019-04-22T12:56:17.390Z,22.12
2019-04-22T12:57:16.881Z,22.17
2019-04-22T12:58:18.079Z,22.16
2019-04-22T12:59:17.256Z,22.37
2019-04-22T13:00:17.604Z,22.37
2019-04-22T13:01:17.025Z,22.31
2019-04-22T13:02:16.405Z,22.38
2019-04-22T13:03:18.057Z,22.41
2019-04-22T13:04:19.184Z,22.41
2019-04-22T13:05:18.552Z,22.48
2019-04-22T13:06:17.505Z,22.40
2019-04-22T13:07:17.670Z,22.44
2019-04-22T13:08:18.018Z,22.28
2019-04-22T13:09:18.035Z,22.34
2019-04-22T13:10:17.753Z,22.40
2019-04-22T13:11:18.432Z,22.44
2019-04-22T13:12:17.097Z,22.47
2019-04-22T13:13:16.510Z,22.47
2019-04-22T13:14:16.856Z,22.40
2019-04-22T13:15:18.113Z,22.44
2019-04-22T13:16:17.454Z,22.23
2019-04-22T13:17:17.165Z,22.31
2019-04-22T13:18:23.586Z,22.35
2019-04-22T13:19:18.666Z,22.50
2019-04-22T13:20:18.299Z,22.52
2019-04-22T13:21:16.294Z,22.57
2019-04-22T13:22:16.928Z,22.52
2019-04-22T13:23:17.610Z,22.40
2019-04-22T13:24:19.517Z,22.38
2019-04-22T13:25:17.583Z,22.37
2019-04-22T13:26:17.067Z,22.43
2019-04-22T13:27:17.183Z,22.37
2019-04-22T13:28:16.538Z,22.28
2019-04-22T13:29:16.916Z,22.35
2019-04-22T13:30:18.564Z,22.20
2019-04-22T13:31:19.290Z,22.47
2019-04-22T13:32:18.322Z,22.43
2019-04-22T13:33:17.013Z,22.41
2019-04-22T13:34:21.220Z,22.26
2019-04-22T13:35:19.927Z,22.26
2019-04-22T13:36:18.914Z,22.27
2019-04-22T13:37:17.030Z,22.34
2019-04-22T13:38:17.336Z,22.38
2019-04-22T13:39:17.105Z,22.40
2019-04-22T13:40:16.892Z,22.34
2019-04-22T13:41:28.808Z,22.28
2019-04-22T13:42:20.271Z,22.26
2019-04-22T13:43:16.787Z,22.24
2019-04-22T13:44:17.522Z,22.12
2019-04-22T13:45:16.285Z,22.45
2019-04-22T13:46:17.061Z,22.35
2019-04-22T13:47:34.504Z,22.33
2019-04-22T13:48:30.916Z,22.38
2019-04-22T13:49:49.205Z,22.40
2019-04-22T13:50:42.270Z,22.33
2019-04-22T13:51:44.816Z,22.35
2019-04-22T13:52:46.143Z,22.33
2019-04-22T13:54:52.775Z,22.41
2019-04-22T13:55:44.799Z,22.48
2019-04-22T13:56:36.857Z,22.40
2019-04-22T13:57:32.388Z,22.41
2019-04-22T13:58:31.052Z,22.37
2019-04-22T13:59:22.880Z,22.41
2019-04-22T14:00:16.418Z,22.30
2019-04-22T14:01:16.580Z,22.33
2019-04-22T14:02:16.943Z,22.48
2019-04-22T14:03:16.359Z,22.33
2019-04-22T14:04:16.630Z,22.38
2019-04-22T14:05:16.991Z,22.27
2019-04-22T14:06:16.478Z,22.76
2019-04-22T14:07:16.874Z,22.68
2019-04-22T14:08:18.398Z,22.57
2019-04-22T14:09:17.091Z,22.47
2019-04-22T14:10:16.507Z,22.33
2019-04-22T14:11:27.552Z,22.27
2019-04-22T14:12:17.873Z,22.23
2019-04-22T14:13:17.060Z,22.28
2019-04-22T14:14:17.613Z,22.31
2019-04-22T14:15:18.034Z,22.48
2019-04-22T14:16:17.146Z,22.52
2019-04-22T14:17:16.791Z,22.44
2019-04-22T14:18:17.164Z,22.52
2019-04-22T14:19:16.457Z,22.50
2019-04-22T14:20:16.570Z,22.54
2019-04-22T14:21:16.895Z,22.64
2019-04-22T14:22:16.227Z,22.54
2019-04-22T14:23:17.352Z,22.62
2019-04-22T14:24:17.813Z,22.67
2019-04-22T14:25:16.957Z,22.52
2019-04-22T14:26:17.402Z,22.44
2019-04-22T14:27:27.575Z,22.47
2019-04-22T14:28:19.097Z,22.60
2019-04-22T14:29:17.575Z,22.55
2019-04-22T14:30:17.019Z,22.58
2019-04-22T14:31:18.161Z,22.60
2019-04-22T14:33:18.219Z,22.80
2019-04-22T14:34:16.901Z,22.67
2019-04-22T14:35:16.640Z,22.57
2019-04-22T14:36:17.168Z,22.54
2019-04-22T14:37:16.503Z,22.52
2019-04-22T14:38:18.313Z,22.34
2019-04-22T14:39:17.760Z,22.34
2019-04-22T14:40:18.309Z,22.35
2019-04-22T14:41:35.587Z,22.35
2019-04-22T14:42:34.203Z,22.33
2019-04-22T14:43:37.100Z,22.41
2019-04-22T14:44:20.513Z,22.67
2019-04-22T14:45:11.837Z,22.34
2019-04-22T14:45:47.208Z,22.28
2019-04-22T14:46:38.666Z,22.38
2019-04-22T14:47:30.780Z,22.43
2019-04-22T14:48:41.489Z,22.33
2019-04-22T14:50:34.966Z,22.48
2019-04-22T14:51:30.103Z,22.47
2019-04-22T14:52:39.341Z,22.48
2019-04-22T14:53:34.710Z,22.51
2019-04-22T14:54:26.341Z,22.58
2019-04-22T14:55:22.818Z,22.47
2019-04-22T14:56:18.117Z,22.43
2019-04-22T14:57:17.016Z,22.43
2019-04-22T14:58:17.223Z,22.45
2019-04-22T14:59:16.826Z,22.43
2019-04-22T15:00:18.039Z,22.43
2019-04-22T15:01:17.183Z,22.51
2019-04-22T15:02:16.460Z,22.33
2019-04-22T15:03:17.599Z,22.26
2019-04-22T15:04:17.279Z,22.30
2019-04-22T15:05:16.607Z,22.35
2019-04-22T15:06:18.139Z,22.33
2019-04-22T15:07:16.889Z,22.34
2019-04-22T15:08:17.212Z,22.35
2019-04-22T15:09:16.637Z,22.27
2019-04-22T15:10:17.968Z,22.23